Time;durP1;ratioP1;P1;durP2;ratioP2;P2;SDS_P1;SDS_P2;PMS_P1;PMS_P2;Temp;Humidity;BMP_temperature;BMP_pressure;BME280_temperature;BME280_humidity;BME280_pressure;Samples;Min_cycle;Max_cycle;Signal;HPM_P1;HPM_P2
2021/05/17 00:02:00;;;;;;;;;;;;;;;17.93;53.35;98888.91;5092849;28;19918;-38
2021/05/17 00:04:31;;;;;;;;;;;;;;;18.06;54.26;98894.78;5092749;28;19912;-37
2021/05/17 00:06:56;;;;;;;;;;;;;;;18.16;53.24;98900.13;5092899;28;19970;-38
2021/05/17 00:09:22;;;;;;;;;;;;;;;18.21;53.94;98897.44;5092363;28;20346;-38
2021/05/17 00:11:47;;;;;;;;;;;;;;;18.29;53.61;98904.94;5092452;28;19946;-38
2021/05/17 00:14:13;;;;;;;;;;;;;;;18.42;53.03;98900.06;5092871;28;20003;-38
2021/05/17 00:16:38;;;;;;;;;;;;;;;18.23;53.50;98907.94;5092663;28;20386;-38
2021/05/17 00:19:05;;;;;;;;;;;;;;;18.13;53.79;98904.19;5092814;28;19988;-38
2021/05/17 00:21:30;;;;;;;;;;;;;;;18.28;53.16;98903.34;5092416;28;19912;-39
2021/05/17 00:23:56;;;;;;;;;;;;;;;18.29;53.53;98909.53;5092347;28;19912;-37
2021/05/17 00:26:21;;;;;;;;;;;;;;;18.30;53.50;98900.38;5092312;28;20279;-38
2021/05/17 00:28:47;;;;;;;;;;;;;;;18.34;53.91;98896.84;5092046;28;19919;-38
2021/05/17 00:31:12;;;;;;;;;;;;;;;18.21;53.68;98902.81;5092242;28;20000;-37
2021/05/17 00:33:37;;;;;;;;;;;;;;;18.10;54.51;98902.03;5092013;28;19916;-38
2021/05/17 00:36:03;;;;;;;;;;;;;;;18.16;54.28;98892.06;5092088;28;19918;-38
2021/05/17 00:38:28;;;;;;;;;;;;;;;18.23;54.19;98899.84;5092433;28;19912;-37
2021/05/17 00:40:53;;;;;;;;;;;;;;;18.14;54.24;98907.69;5091972;28;20357;-38
2021/05/17 00:43:20;;;;;;;;;;;;;;;18.12;54.46;98901.75;5091792;28;19970;-38
2021/05/17 00:45:46;;;;;;;;;;;;;;;18.00;54.66;98907.44;5090665;28;19912;-38
2021/05/17 00:48:11;;;;;;;;;;;;;;;17.97;54.94;98898.06;5111627;28;20298;-38
2021/05/17 00:50:37;;;;;;;;;;;;;;;17.89;54.73;98898.59;5112544;28;19912;-38
2021/05/17 00:53:02;;;;;;;;;;;;;;;17.95;54.68;98902.06;5112422;28;19972;-38
2021/05/17 00:55:27;;;;;;;;;;;;;;;17.90;55.40;98900.22;5112214;28;20344;-38
2021/05/17 00:57:53;;;;;;;;;;;;;;;17.62;56.38;98895.38;5112293;28;19969;-38
2021/05/17 01:00:22;;;;;;;;;;;;;;;17.49;56.00;98894.81;5112444;28;19911;-38
2021/05/17 01:02:47;;;;;;;;;;;;;;;17.65;55.62;98892.13;5112176;28;20261;-38
2021/05/17 01:05:12;;;;;;;;;;;;;;;17.69;54.93;98885.16;5112132;28;19919;-37
2021/05/17 01:07:38;;;;;;;;;;;;;;;17.58;55.12;98887.84;5111722;28;19912;-37
2021/05/17 01:10:04;;;;;;;;;;;;;;;17.64;54.62;98885.94;5111918;28;20014;-37
2021/05/17 01:12:30;;;;;;;;;;;;;;;17.72;54.66;98888.09;5111851;28;19924;-37
2021/05/17 01:14:56;;;;;;;;;;;;;;;17.69;54.36;98890.53;5112261;28;19916;-38
2021/05/17 01:17:22;;;;;;;;;;;;;;;17.63;54.89;98894.28;5112102;28;19911;-38
2021/05/17 01:20:11;;;;;;;;;;;;;;;17.56;54.95;98900.75;5112134;28;19981;-38
2021/05/17 01:22:50;;;;;;;;;;;;;;;17.68;54.75;98907.75;5108737;28;20371;-38
2021/05/17 01:25:17;;;;;;;;;;;;;;;17.55;54.63;98901.84;5112489;28;19978;-38
2021/05/17 01:27:42;;;;;;;;;;;;;;;17.61;55.08;98901.81;5112068;28;19912;-38
2021/05/17 01:30:08;;;;;;;;;;;;;;;17.70;54.71;98901.00;5112211;28;19968;-38
2021/05/17 01:32:34;;;;;;;;;;;;;;;17.72;54.93;98893.47;5111600;28;20398;-37
2021/05/17 01:34:59;;;;;;;;;;;;;;;17.46;55.01;98895.38;5111679;28;19931;-38
2021/05/17 01:37:26;;;;;;;;;;;;;;;17.50;55.09;98901.03;5111998;28;19968;-37
2021/05/17 01:39:51;;;;;;;;;;;;;;;17.69;54.62;98901.28;5112131;28;19912;-37
2021/05/17 01:42:17;;;;;;;;;;;;;;;17.65;55.18;98895.66;5107653;28;19919;-37
2021/05/17 01:44:42;;;;;;;;;;;;;;;17.65;54.79;98900.19;5090362;28;19912;-38
2021/05/17 01:47:07;;;;;;;;;;;;;;;17.62;54.70;98904.25;5090186;28;20272;-38
2021/05/17 01:49:33;;;;;;;;;;;;;;;17.52;54.67;98896.19;5091555;28;19923;-37
2021/05/17 01:51:58;;;;;;;;;;;;;;;17.61;54.66;98894.56;5091385;28;20323;-37
2021/05/17 01:54:28;;;;;;;;;;;;;;;17.51;55.08;98903.44;5090236;28;19961;-37
2021/05/17 01:56:53;;;;;;;;;;;;;;;17.44;54.94;98902.91;5091596;28;19962;-37
2021/05/17 01:59:29;;;;;;;;;;;;;;;17.39;55.05;98905.59;5089744;28;19912;-37
2021/05/17 02:01:54;;;;;;;;;;;;;;;17.43;55.60;98911.25;5090545;28;20419;-38
2021/05/17 02:04:19;;;;;;;;;;;;;;;17.37;55.83;98903.16;5089746;28;19956;-38
2021/05/17 02:06:44;;;;;;;;;;;;;;;17.42;55.95;98899.69;5091126;28;19931;-38
2021/05/17 02:09:10;;;;;;;;;;;;;;;17.41;54.98;98906.13;5091075;28;20302;-38
2021/05/17 02:11:35;;;;;;;;;;;;;;;17.34;54.88;98909.09;5089676;28;19971;-38
2021/05/17 02:14:00;;;;;;;;;;;;;;;16.99;55.49;98909.84;5091210;28;19923;-38
2021/05/17 02:16:26;;;;;;;;;;;;;;;16.80;56.31;98907.63;5091414;28;19912;-38
2021/05/17 02:18:51;;;;;;;;;;;;;;;16.93;55.98;98910.91;5091272;28;20007;-38
2021/05/17 02:21:17;;;;;;;;;;;;;;;16.88;55.75;98917.06;5094718;28;19912;-38
2021/05/17 02:23:42;;;;;;;;;;;;;;;16.74;56.06;98907.88;5093611;28;19912;-38
2021/05/17 02:26:07;;;;;;;;;;;;;;;16.96;55.73;98905.81;5094495;28;20298;-38
2021/05/17 02:28:39;;;;;;;;;;;;;;;17.12;54.39;98909.34;5094743;28;19916;-38
2021/05/17 02:31:05;;;;;;;;;;;;;;;16.63;55.47;98908.91;5094789;28;19980;-38
2021/05/17 02:33:30;;;;;;;;;;;;;;;16.71;55.25;98903.81;5094407;28;19920;-38
2021/05/17 02:35:56;;;;;;;;;;;;;;;16.81;55.16;98905.72;5094867;28;19919;-37
2021/05/17 02:38:21;;;;;;;;;;;;;;;16.67;55.99;98905.44;5094643;28;20402;-38
2021/05/17 02:40:47;;;;;;;;;;;;;;;16.79;55.51;98899.81;5094491;28;19912;-36
2021/05/17 02:43:12;;;;;;;;;;;;;;;16.74;54.75;98889.06;5093156;28;19919;-38
2021/05/17 02:45:38;;;;;;;;;;;;;;;16.98;54.60;98902.84;5094369;28;19952;-37
2021/05/17 02:48:04;;;;;;;;;;;;;;;17.02;54.74;98892.38;5094527;28;19919;-37
2021/05/17 02:50:36;;;;;;;;;;;;;;;17.05;54.41;98894.53;5094284;28;19916;-37
2021/05/17 02:53:01;;;;;;;;;;;;;;;17.02;54.64;98906.63;5093886;28;19920;-37
2021/05/17 02:55:31;;;;;;;;;;;;;;;17.07;53.89;98903.13;5093976;28;20316;-38
2021/05/17 02:58:04;;;;;;;;;;;;;;;16.10;56.50;98892.84;5092796;28;19953;-37
2021/05/17 03:00:30;;;;;;;;;;;;;;;15.88;57.71;98890.28;5093743;28;20452;-37
2021/05/17 03:03:03;;;;;;;;;;;;;;;16.12;56.92;98888.81;5093914;28;19964;-37
2021/05/17 03:05:29;;;;;;;;;;;;;;;15.97;57.74;98896.78;5094126;28;19919;-37
2021/05/17 03:08:01;;;;;;;;;;;;;;;15.71;57.68;98903.84;5092899;28;19916;-37
2021/05/17 03:10:27;;;;;;;;;;;;;;;15.08;60.03;98901.72;5092734;28;19919;-37
2021/05/17 03:12:53;;;;;;;;;;;;;;;15.68;57.98;98896.28;5092254;28;19924;-37
2021/05/17 03:15:18;;;;;;;;;;;;;;;15.51;58.89;98899.91;5092605;28;19912;-37
2021/05/17 03:17:43;;;;;;;;;;;;;;;15.92;57.86;98902.94;5093044;28;19995;-37
2021/05/17 03:20:09;;;;;;;;;;;;;;;15.74;57.96;98914.88;5092339;28;20356;-37
2021/05/17 03:22:34;;;;;;;;;;;;;;;15.66;58.19;98906.47;5093812;28;19922;-37
2021/05/17 03:24:59;;;;;;;;;;;;;;;15.87;57.49;98904.78;5092108;28;19936;-38
2021/05/17 03:27:26;;;;;;;;;;;;;;;16.09;56.59;98912.66;5093741;28;19916;-38
2021/05/17 03:29:51;;;;;;;;;;;;;;;16.05;57.75;98915.09;5093192;28;19919;-37
2021/05/17 03:32:16;;;;;;;;;;;;;;;16.22;56.51;98914.88;5093007;28;19916;-38
2021/05/17 03:34:42;;;;;;;;;;;;;;;16.52;56.20;98918.81;5093283;28;19919;-38
2021/05/17 03:37:07;;;;;;;;;;;;;;;16.64;55.67;98934.69;5093302;28;19912;-37
2021/05/17 03:39:33;;;;;;;;;;;;;;;16.83;55.62;98930.50;5093218;28;20368;-37
2021/05/17 03:41:58;;;;;;;;;;;;;;;17.27;54.33;98921.16;5093234;28;19919;-36
2021/05/17 03:44:23;;;;;;;;;;;;;;;17.42;54.27;98931.13;5093250;28;19995;-36
2021/05/17 03:46:48;;;;;;;;;;;;;;;17.58;53.67;98930.88;5093204;28;20030;-37
2021/05/17 03:49:14;;;;;;;;;;;;;;;17.89;53.39;98938.94;5093156;28;19912;-38
2021/05/17 03:51:39;;;;;;;;;;;;;;;18.10;51.76;98938.94;5092680;28;19916;-38
2021/05/17 03:54:04;;;;;;;;;;;;;;;18.40;51.63;98951.50;5092924;28;19923;-38
2021/05/17 03:56:29;;;;;;;;;;;;;;;19.10;50.17;98948.00;5092689;28;19934;-38
2021/05/17 03:58:55;;;;;;;;;;;;;;;19.62;48.43;98953.84;5091332;28;19916;-38
2021/05/17 04:01:20;;;;;;;;;;;;;;;20.01;47.72;98948.41;5092845;28;20295;-38
2021/05/17 04:03:46;;;;;;;;;;;;;;;20.33;46.60;98951.59;5092938;28;19944;-38
2021/05/17 04:06:18;;;;;;;;;;;;;;;20.82;45.50;98959.41;5091971;28;19934;-38
2021/05/17 04:14:11;;;;;;;;;;;;;;;22.23;43.71;98974.03;5071416;28;20064;-36
2021/05/17 04:16:36;;;;;;;;;;;;;;;22.65;42.35;98966.75;5071637;28;19975;-37
2021/05/17 04:19:02;;;;;;;;;;;;;;;22.74;41.81;98964.16;5071511;28;19916;-37
2021/05/17 04:21:27;;;;;;;;;;;;;;;22.92;40.99;98973.25;5071340;28;19991;-52
2021/05/17 04:23:52;;;;;;;;;;;;;;;22.78;40.77;98974.09;5069076;28;20019;-51
2021/05/17 04:26:17;;;;;;;;;;;;;;;22.54;41.46;98989.75;5070366;28;19920;-50
2021/05/17 04:28:43;;;;;;;;;;;;;;;22.15;42.36;98975.53;5071150;28;19920;-51
2021/05/17 04:31:08;;;;;;;;;;;;;;;22.39;41.68;98988.13;5070788;28;20440;-53
2021/05/17 04:33:33;;;;;;;;;;;;;;;22.60;40.89;98988.56;5071107;28;19916;-52
2021/05/17 04:35:59;;;;;;;;;;;;;;;22.94;40.33;98990.03;5072147;28;19924;-51
2021/05/17 04:38:24;;;;;;;;;;;;;;;23.28;39.87;98996.94;5070679;28;20260;-50
2021/05/17 04:40:50;;;;;;;;;;;;;;;23.41;39.35;98999.59;5081279;28;19923;-52
2021/05/17 04:43:15;;;;;;;;;;;;;;;23.54;39.11;98991.72;5090327;28;19986;-52
2021/05/17 04:45:40;;;;;;;;;;;;;;;24.23;37.96;98993.31;5091024;28;19916;-50
2021/05/17 04:48:06;;;;;;;;;;;;;;;24.15;38.60;98992.94;5109362;28;20260;-51
2021/05/17 04:50:31;;;;;;;;;;;;;;;24.71;37.64;98995.28;5110403;28;19912;-50
2021/05/17 04:52:56;;;;;;;;;;;;;;;25.15;36.12;98979.84;5110213;28;19962;-51
2021/05/17 04:55:22;;;;;;;;;;;;;;;25.38;35.34;98975.13;5110640;28;19923;-50
2021/05/17 04:57:47;;;;;;;;;;;;;;;25.80;35.12;98971.84;5110699;28;19954;-53
2021/05/17 05:00:13;;;;;;;;;;;;;;;25.53;35.78;98960.19;5110853;28;20441;-51
2021/05/17 05:02:39;;;;;;;;;;;;;;;26.08;34.77;98964.94;5110796;28;19918;-52
2021/05/17 05:05:05;;;;;;;;;;;;;;;26.48;34.75;98961.91;5110577;28;19947;-53
2021/05/17 05:07:30;;;;;;;;;;;;;;;26.82;34.20;98975.69;5110425;28;19963;-52
2021/05/17 05:09:55;;;;;;;;;;;;;;;27.02;33.86;98968.69;5110678;28;19950;-51
2021/05/17 05:12:20;;;;;;;;;;;;;;;27.55;33.82;98980.00;5110535;28;19924;-48
2021/05/17 05:14:46;;;;;;;;;;;;;;;28.03;31.98;98973.16;5102737;28;19916;-49
2021/05/17 05:17:11;;;;;;;;;;;;;;;28.53;31.16;98971.28;5090453;28;19961;-50
2021/05/17 05:19:36;;;;;;;;;;;;;;;28.79;31.33;98965.47;5088716;28;19952;-51
2021/05/17 05:22:01;;;;;;;;;;;;;;;29.04;30.58;98961.53;5090125;28;19998;-51
2021/05/17 05:24:27;;;;;;;;;;;;;;;29.46;30.30;98949.44;5090332;28;20006;-52
2021/05/17 05:29:45;;;;;;;;;;;;;;;29.46;29.98;98946.69;5090693;28;19918;-50
2021/05/17 05:34:35;;;;;;;;;;;;;;;30.42;28.80;98944.91;5090408;28;19912;-50
2021/05/17 05:37:01;;;;;;;;;;;;;;;30.86;28.41;98933.75;5090096;28;20348;-51
2021/05/17 05:39:27;;;;;;;;;;;;;;;30.98;28.18;98939.16;5090371;28;19919;-50
2021/05/17 05:41:52;;;;;;;;;;;;;;;31.34;27.29;98928.13;5090296;28;19912;-51
2021/05/17 05:44:17;;;;;;;;;;;;;;;31.65;26.90;98937.38;5090328;28;20061;-50
2021/05/17 05:46:42;;;;;;;;;;;;;;;31.84;26.92;98931.81;5097805;28;19922;-50
2021/05/17 05:49:08;;;;;;;;;;;;;;;31.99;26.06;98935.63;5110762;28;19923;-51
2021/05/17 05:51:34;;;;;;;;;;;;;;;32.05;26.16;98939.69;5110469;28;20348;-48
2021/05/17 05:53:59;;;;;;;;;;;;;;;32.26;26.60;98938.44;5110908;28;19919;-52
2021/05/17 05:56:25;;;;;;;;;;;;;;;32.64;26.07;98943.00;5114612;28;19959;-50
2021/05/17 05:58:50;;;;;;;;;;;;;;;32.89;25.45;98943.34;5114258;28;19911;-51
2021/05/17 06:01:15;;;;;;;;;;;;;;;32.87;25.07;98951.19;5114084;28;19953;-50
2021/05/17 06:03:41;;;;;;;;;;;;;;;32.92;25.66;98952.84;5114289;28;19916;-49
2021/05/17 06:06:08;;;;;;;;;;;;;;;33.10;25.65;98953.88;5114262;28;19968;-51
2021/05/17 06:08:33;;;;;;;;;;;;;;;33.41;24.52;98959.38;5114336;28;19968;-51
2021/05/17 06:10:59;;;;;;;;;;;;;;;32.77;25.26;98951.03;5099412;28;19916;-51
2021/05/17 06:13:25;;;;;;;;;;;;;;;33.31;24.32;98952.56;5098657;28;20384;-51
2021/05/17 06:15:50;;;;;;;;;;;;;;;33.38;24.07;98957.38;5098292;28;20543;-50
2021/05/17 06:18:16;;;;;;;;;;;;;;;33.28;24.45;98958.81;5101683;28;19955;-52
2021/05/17 06:20:41;;;;;;;;;;;;;;;33.54;24.33;98955.19;5097623;28;19920;-48
2021/05/17 06:23:08;;;;;;;;;;;;;;;34.08;24.01;98953.81;5092544;28;19912;-49
2021/05/17 06:25:33;;;;;;;;;;;;;;;33.21;24.93;98951.28;5093544;28;19983;-51
2021/05/17 06:27:58;;;;;;;;;;;;;;;33.80;24.19;98948.00;5093538;28;19920;-50
2021/05/17 06:30:24;;;;;;;;;;;;;;;33.58;23.64;98941.44;5093016;28;20008;-49
2021/05/17 06:32:50;;;;;;;;;;;;;;;33.71;24.17;98936.50;5092893;28;19931;-51
2021/05/17 06:35:22;;;;;;;;;;;;;;;33.81;24.48;98935.78;5092822;28;20021;-49
2021/05/17 06:37:47;;;;;;;;;;;;;;;33.81;24.12;98941.31;5092973;28;19969;-51
2021/05/17 06:40:13;;;;;;;;;;;;;;;33.55;24.18;98925.63;5092821;28;19920;-51
2021/05/17 06:42:38;;;;;;;;;;;;;;;34.19;23.21;98918.00;5083369;28;20384;-51
2021/05/17 06:45:04;;;;;;;;;;;;;;;34.84;23.17;98907.41;5093113;28;20469;-51
2021/05/17 06:47:29;;;;;;;;;;;;;;;35.17;22.47;98903.66;5107724;28;20358;-52
2021/05/17 06:49:54;;;;;;;;;;;;;;;35.71;22.28;98905.78;5113504;28;19916;-51
2021/05/17 06:52:24;;;;;;;;;;;;;;;35.46;21.51;98902.94;5107897;28;20035;-49
2021/05/17 06:54:56;;;;;;;;;;;;;;;35.54;21.68;98891.47;5093211;28;19962;-51
2021/05/17 06:57:28;;;;;;;;;;;;;;;35.32;21.74;98889.84;5093168;28;19919;-52
2021/05/17 06:59:59;;;;;;;;;;;;;;;35.59;22.00;98891.09;5092942;28;19915;-52
2021/05/17 07:02:24;;;;;;;;;;;;;;;35.70;22.22;98885.63;5093372;28;20004;-51
2021/05/17 07:04:50;;;;;;;;;;;;;;;36.15;20.94;98882.44;5092120;28;20308;-50
2021/05/17 07:12:51;;;;;;;;;;;;;;;36.18;20.55;98893.56;5093086;28;20041;-51
2021/05/17 07:15:16;;;;;;;;;;;;;;;36.26;20.52;98896.31;5091613;28;19955;-51
2021/05/17 07:17:44;;;;;;;;;;;;;;;36.18;20.64;98882.47;5092742;28;19919;-50
2021/05/17 07:20:10;;;;;;;;;;;;;;;35.97;21.57;98885.25;5091596;28;20006;-51
2021/05/17 07:25:19;;;;;;;;;;;;;;;36.53;20.62;98878.06;5092172;28;19966;-50
2021/05/17 07:27:45;;;;;;;;;;;;;;;36.60;19.25;98872.50;5092775;28;19940;-49
2021/05/17 07:30:10;;;;;;;;;;;;;;;36.22;20.20;98873.41;5092891;28;20291;-49
2021/05/17 07:32:36;;;;;;;;;;;;;;;36.46;20.28;98880.06;5092386;28;20080;-49
2021/05/17 07:35:01;;;;;;;;;;;;;;;36.91;20.11;98877.56;5092685;28;19923;-51
2021/05/17 07:37:27;;;;;;;;;;;;;;;36.86;20.58;98875.22;5092644;28;20372;-51
2021/05/17 07:39:52;;;;;;;;;;;;;;;36.97;20.54;98868.41;5090508;28;19974;-50
2021/05/17 07:42:17;;;;;;;;;;;;;;;37.29;19.59;98867.50;5072427;28;19923;-52
2021/05/17 07:44:43;;;;;;;;;;;;;;;37.27;19.79;98869.13;5072445;28;19912;-50
2021/05/17 07:47:08;;;;;;;;;;;;;;;36.89;19.47;98861.34;5094437;28;19960;-50
2021/05/17 07:49:38;;;;;;;;;;;;;;;36.42;20.30;98860.66;5112742;28;20318;-51
2021/05/17 07:52:04;;;;;;;;;;;;;;;35.39;21.33;98854.72;5112454;28;20014;-51
2021/05/17 07:54:29;;;;;;;;;;;;;;;35.58;21.41;98856.31;5109574;28;20335;-51
2021/05/17 07:56:54;;;;;;;;;;;;;;;35.33;21.48;98845.22;5092275;28;20587;-48
2021/05/17 07:59:20;;;;;;;;;;;;;;;35.12;21.54;98842.38;5091708;28;19923;-49
2021/05/17 08:01:45;;;;;;;;;;;;;;;35.08;21.80;98841.59;5092092;28;19949;-51
2021/05/17 08:04:11;;;;;;;;;;;;;;;34.46;21.76;98837.72;5092106;28;19912;-51
2021/05/17 08:06:36;;;;;;;;;;;;;;;34.84;21.41;98835.56;5092066;28;19912;-51
2021/05/17 08:09:01;;;;;;;;;;;;;;;35.36;22.25;98843.66;5091809;28;19923;-49
2021/05/17 08:11:26;;;;;;;;;;;;;;;35.33;21.69;98839.69;5091488;28;19924;-52
2021/05/17 08:13:52;;;;;;;;;;;;;;;35.61;21.41;98838.94;5091837;28;20361;-52
2021/05/17 08:16:17;;;;;;;;;;;;;;;34.28;21.96;98845.94;5091620;28;19920;-50
2021/05/17 08:18:43;;;;;;;;;;;;;;;34.70;22.48;98844.59;5091476;28;20314;-52
2021/05/17 08:21:08;;;;;;;;;;;;;;;34.76;22.53;98842.25;5091859;28;19919;-52
2021/05/17 08:23:34;;;;;;;;;;;;;;;33.81;23.14;98836.47;5091608;28;19912;-51
2021/05/17 08:25:59;;;;;;;;;;;;;;;33.85;23.01;98835.34;5092306;28;19912;-48
2021/05/17 08:28:25;;;;;;;;;;;;;;;34.40;23.00;98831.00;5091821;28;19918;-49
2021/05/17 08:30:55;;;;;;;;;;;;;;;34.51;22.47;98834.63;5091415;28;19919;-49
2021/05/17 08:33:20;;;;;;;;;;;;;;;34.03;22.72;98831.94;5090003;28;20022;-49
2021/05/17 08:35:46;;;;;;;;;;;;;;;34.27;22.31;98822.25;5091513;28;19951;-52
2021/05/17 08:38:11;;;;;;;;;;;;;;;34.44;22.70;98812.47;5091896;28;19912;-49
2021/05/17 08:40:37;;;;;;;;;;;;;;;34.61;22.26;98817.28;5091600;28;19918;-50
2021/05/17 08:43:02;;;;;;;;;;;;;;;34.66;22.75;98824.44;5091365;28;19993;-50
2021/05/17 08:45:28;;;;;;;;;;;;;;;34.42;24.24;98817.59;5091712;28;20389;-52
2021/05/17 08:47:53;;;;;;;;;;;;;;;34.38;23.00;98817.56;5109088;28;19975;-53
2021/05/17 08:50:18;;;;;;;;;;;;;;;34.43;23.86;98816.44;5110735;28;19946;-52
2021/05/17 08:52:44;;;;;;;;;;;;;;;34.49;23.75;98814.09;5110268;28;19915;-52
2021/05/17 08:55:09;;;;;;;;;;;;;;;34.38;23.23;98809.28;5110138;28;20329;-51
2021/05/17 08:57:35;;;;;;;;;;;;;;;34.42;23.08;98814.84;5111676;28;19927;-52
2021/05/17 09:00:00;;;;;;;;;;;;;;;34.44;22.21;98809.72;5111855;28;20388;-52
2021/05/17 09:02:28;;;;;;;;;;;;;;;34.37;22.02;98807.72;5111433;28;19919;-52
2021/05/17 09:05:12;;;;;;;;;;;;;;;34.26;22.28;98799.38;5111196;28;19922;-52
2021/05/17 09:07:42;;;;;;;;;;;;;;;34.33;22.76;98806.09;5111063;28;20006;-51
2021/05/17 09:10:35;;;;;;;;;;;;;;;34.14;22.91;98796.91;5110869;28;19919;-51
2021/05/17 09:13:01;;;;;;;;;;;;;;;33.83;23.26;98796.31;5110064;28;20016;-51
2021/05/17 09:15:30;;;;;;;;;;;;;;;33.61;23.24;98800.06;5111259;28;19919;-52
2021/05/17 09:17:56;;;;;;;;;;;;;;;33.55;23.29;98798.78;5111184;28;19915;-52
2021/05/17 09:20:22;;;;;;;;;;;;;;;33.51;23.54;98801.56;5109496;28;19916;-51
2021/05/17 09:22:48;;;;;;;;;;;;;;;33.38;23.44;98787.25;5111005;28;20005;-51
2021/05/17 09:25:14;;;;;;;;;;;;;;;32.96;23.65;98788.38;5111139;28;19914;-50
2021/05/17 09:27:39;;;;;;;;;;;;;;;32.84;24.19;98794.13;5111028;28;20024;-50
2021/05/17 09:30:05;;;;;;;;;;;;;;;33.00;24.35;98788.41;5115320;28;19912;-51
2021/05/17 09:32:31;;;;;;;;;;;;;;;32.88;23.17;98792.19;5115465;28;20365;-49
2021/05/17 09:34:58;;;;;;;;;;;;;;;32.81;22.63;98789.38;5114922;28;20256;-52
2021/05/17 09:37:23;;;;;;;;;;;;;;;32.93;22.76;98794.63;5115120;28;20044;-51
2021/05/17 09:39:50;;;;;;;;;;;;;;;32.79;22.87;98788.97;5115086;28;20007;-50
2021/05/17 09:42:15;;;;;;;;;;;;;;;32.71;22.91;98786.13;5114814;28;19911;-52
2021/05/17 09:44:43;;;;;;;;;;;;;;;32.86;22.61;98783.53;5113466;28;19918;-49
2021/05/17 09:47:23;;;;;;;;;;;;;;;32.57;23.32;98774.16;5114456;28;19919;-51
2021/05/17 09:49:56;;;;;;;;;;;;;;;32.59;23.62;98774.56;5114624;28;19912;-52
2021/05/17 09:52:22;;;;;;;;;;;;;;;32.30;24.43;98772.19;5114750;28;19972;-51
2021/05/17 09:54:54;;;;;;;;;;;;;;;32.32;24.48;98771.81;5114923;28;19912;-49
2021/05/17 09:57:21;;;;;;;;;;;;;;;32.14;25.15;98766.88;5114364;28;19919;-51
2021/05/17 09:59:46;;;;;;;;;;;;;;;31.94;24.28;98776.38;5114333;28;20003;-49
2021/05/17 10:02:30;;;;;;;;;;;;;;;31.46;25.26;98763.06;5114526;28;19947;-50
2021/05/17 10:04:56;;;;;;;;;;;;;;;31.24;26.34;98761.06;5114622;28;19916;-50
2021/05/17 10:07:21;;;;;;;;;;;;;;;30.96;25.21;98757.44;5114510;28;19927;-51
2021/05/17 10:09:47;;;;;;;;;;;;;;;31.14;25.91;98765.22;5113806;28;19997;-52
2021/05/17 10:12:12;;;;;;;;;;;;;;;31.08;26.06;98759.22;5113899;28;19924;-51
2021/05/17 10:14:37;;;;;;;;;;;;;;;30.88;26.38;98743.91;5114349;28;20340;-51
2021/05/17 10:17:03;;;;;;;;;;;;;;;30.09;27.23;98742.28;5113822;28;19911;-51
2021/05/17 10:19:28;;;;;;;;;;;;;;;28.96;30.02;98739.88;5114447;28;20006;-50
2021/05/17 10:21:54;;;;;;;;;;;;;;;28.67;30.91;98728.16;5114228;28;19918;-51
2021/05/17 10:24:19;;;;;;;;;;;;;;;28.88;31.01;98729.88;5114448;28;19968;-50
2021/05/17 10:26:45;;;;;;;;;;;;;;;28.05;32.07;98733.00;5114631;28;19912;-50
2021/05/17 10:29:10;;;;;;;;;;;;;;;27.15;33.79;98734.72;5112946;28;19971;-51
2021/05/17 10:31:36;;;;;;;;;;;;;;;26.88;34.16;98732.28;5114298;28;19966;-49
2021/05/17 10:34:01;;;;;;;;;;;;;;;26.74;33.84;98728.25;5113472;28;20064;-51
2021/05/17 10:36:45;;;;;;;;;;;;;;;26.75;34.15;98725.19;5113844;28;19954;-50
2021/05/17 10:39:14;;;;;;;;;;;;;;;26.91;34.46;98725.34;5114106;27;19915;-51
2021/05/17 10:42:08;;;;;;;;;;;;;;;27.40;33.37;98713.75;5099684;28;19927;-51
2021/05/17 10:46:36;;;;;;;;;;;;;;;28.22;32.60;98715.53;5093090;28;20276;-51
2021/05/17 10:47:37;;;;;;;;;;;;;;;27.19;33.29;98717.34;5107374;28;20015;-50
2021/05/17 10:50:12;;;;;;;;;;;;;;;27.73;33.08;98713.63;5111631;28;19912;-50
2021/05/17 10:52:37;;;;;;;;;;;;;;;27.82;32.48;98722.50;5113517;28;19922;-51
2021/05/17 10:55:06;;;;;;;;;;;;;;;28.08;31.68;98724.91;5113759;28;19912;-51
2021/05/17 10:57:37;;;;;;;;;;;;;;;27.48;33.09;98721.81;5113564;28;19919;-49
2021/05/17 11:00:22;;;;;;;;;;;;;;;27.89;31.93;98721.94;5113449;28;19911;-49
2021/05/17 11:02:48;;;;;;;;;;;;;;;28.23;31.57;98722.56;5113323;28;19918;-49
2021/05/17 11:05:18;;;;;;;;;;;;;;;28.05;31.28;98722.84;5113323;28;19912;-50
2021/05/17 11:07:43;;;;;;;;;;;;;;;27.31;32.79;98730.22;5113428;28;19918;-49
2021/05/17 11:10:09;;;;;;;;;;;;;;;27.62;32.96;98740.59;5113237;28;20007;-50
2021/05/17 11:12:37;;;;;;;;;;;;;;;27.47;33.88;98735.81;5112795;28;19931;-52
2021/05/17 11:15:02;;;;;;;;;;;;;;;28.11;33.03;98736.28;5112966;28;19923;-51
2021/05/17 11:17:28;;;;;;;;;;;;;;;28.44;32.39;98731.41;5113380;28;19911;-52
2021/05/17 11:19:54;;;;;;;;;;;;;;;28.52;33.17;98737.09;5113825;28;19995;-50
2021/05/17 11:22:20;;;;;;;;;;;;;;;28.65;33.80;98742.19;5113316;28;19912;-50
2021/05/17 11:24:46;;;;;;;;;;;;;;;28.80;33.38;98737.09;5113259;28;19968;-52
2021/05/17 11:27:11;;;;;;;;;;;;;;;28.87;33.49;98742.00;5111953;28;19918;-52
2021/05/17 11:29:38;;;;;;;;;;;;;;;28.85;32.90;98743.13;5113067;28;20002;-50
2021/05/17 11:32:13;;;;;;;;;;;;;;;28.73;34.11;98739.63;5113135;28;19916;-48
2021/05/17 11:34:57;;;;;;;;;;;;;;;28.62;34.05;98756.56;5112839;28;19961;-49
2021/05/17 11:37:22;;;;;;;;;;;;;;;28.64;34.23;98762.50;5112807;28;19919;-50
2021/05/17 11:39:47;;;;;;;;;;;;;;;28.59;34.43;98759.19;5111459;28;20314;-51
2021/05/17 11:42:13;;;;;;;;;;;;;;;28.53;35.02;98763.34;5112731;28;19916;-49
2021/05/17 11:44:43;;;;;;;;;;;;;;;28.54;34.68;98768.47;5112709;28;19914;-51
2021/05/17 11:47:15;;;;;;;;;;;;;;;28.46;34.31;98772.91;5112123;28;20010;-49
2021/05/17 11:49:43;;;;;;;;;;;;;;;28.45;34.31;98765.81;5112514;28;19964;-51
2021/05/17 11:52:09;;;;;;;;;;;;;;;28.44;33.68;98769.72;5109580;28;20023;-51
2021/05/17 11:54:36;;;;;;;;;;;;;;;28.44;34.23;98774.38;5112283;28;20406;-51
2021/05/17 11:57:01;;;;;;;;;;;;;;;28.57;34.17;98775.16;5112446;28;20372;-51
2021/05/17 11:59:28;;;;;;;;;;;;;;;28.70;33.85;98776.72;5110856;28;19934;-49
2021/05/17 12:01:54;;;;;;;;;;;;;;;28.69;33.92;98779.81;5112162;28;20030;-48
2021/05/17 12:04:32;;;;;;;;;;;;;;;28.69;33.80;98785.28;5111892;28;19918;-51
2021/05/17 12:06:58;;;;;;;;;;;;;;;28.61;33.13;98787.78;5112167;28;19911;-48
2021/05/17 12:09:30;;;;;;;;;;;;;;;28.59;33.05;98783.81;5112334;28;19933;-49
2021/05/17 12:11:55;;;;;;;;;;;;;;;28.66;32.61;98787.56;5111838;28;19924;-51
2021/05/17 12:14:20;;;;;;;;;;;;;;;28.62;32.71;98783.16;5111757;28;19916;-50
2021/05/17 12:16:57;;;;;;;;;;;;;;;28.50;33.37;98783.94;5111635;28;20302;-50
2021/05/17 12:19:22;;;;;;;;;;;;;;;27.46;34.28;98778.72;5111806;28;20022;-51
2021/05/17 12:21:47;;;;;;;;;;;;;;;27.75;34.15;98787.06;5111776;28;20007;-51
2021/05/17 12:24:22;;;;;;;;;;;;;;;27.90;33.64;98782.91;5111847;28;20394;-52
2021/05/17 12:26:55;;;;;;;;;;;;;;;27.90;33.11;98780.16;5111822;28;19921;-50
2021/05/17 12:29:20;;;;;;;;;;;;;;;27.88;33.08;98759.44;5111775;28;20243;-50
2021/05/17 12:31:46;;;;;;;;;;;;;;;27.40;33.32;98760.19;5111477;28;19922;-50
2021/05/17 12:34:11;;;;;;;;;;;;;;;27.35;32.71;98753.00;5111400;28;19947;-49
2021/05/17 12:36:37;;;;;;;;;;;;;;;27.46;32.87;98759.63;5111435;28;20366;-50
2021/05/17 12:39:03;;;;;;;;;;;;;;;27.58;31.56;98749.84;5111095;28;19933;-51
2021/05/17 12:41:37;;;;;;;;;;;;;;;27.90;31.13;98747.38;5111550;28;20000;-51
2021/05/17 12:44:03;;;;;;;;;;;;;;;27.98;31.25;98751.91;5111263;28;19918;-49
2021/05/17 12:46:28;;;;;;;;;;;;;;;28.30;30.89;98752.09;5111164;28;19912;-50
2021/05/17 12:48:54;;;;;;;;;;;;;;;28.58;30.21;98744.72;5111562;28;19919;-52
2021/05/17 12:51:23;;;;;;;;;;;;;;;28.86;30.63;98746.66;5110099;28;19932;-53
2021/05/17 12:53:49;;;;;;;;;;;;;;;28.67;31.35;98755.50;5111263;28;19969;-51
2021/05/17 12:56:26;;;;;;;;;;;;;;;28.34;30.19;98748.28;5111268;28;19915;-53
2021/05/17 12:58:52;;;;;;;;;;;;;;;28.43;30.96;98759.91;5111512;28;19929;-51
2021/05/17 13:01:18;;;;;;;;;;;;;;;27.79;32.16;98755.19;5111037;28;20374;-49
2021/05/17 13:03:44;;;;;;;;;;;;;;;28.58;31.27;98758.41;5110809;28;19915;-51
2021/05/17 13:06:36;;;;;;;;;;;;;;;28.83;29.94;98745.41;5111305;28;19984;-52